sensor_id;sensor_type;location;lat;lon;timestamp;temperature;humidity
43858;DHT22;29507;51.284;5.758;2022-09-19T00:01:17;7.70;99.90
43858;DHT22;29507;51.284;5.758;2022-09-19T00:04:19;7.70;99.90
43858;DHT22;29507;51.284;5.758;2022-09-19T00:06:38;7.70;99.90
43858;DHT22;29507;51.284;5.758;2022-09-19T00:09:07;7.70;99.90
43858;DHT22;29507;51.284;5.758;2022-09-19T00:11:34;7.60;99.90
43858;DHT22;29507;51.284;5.758;2022-09-19T00:14:01;7.50;99.90
43858;DHT22;29507;51.284;5.758;2022-09-19T00:16:32;7.50;99.90
43858;DHT22;29507;51.284;5.758;2022-09-19T00:18:59;7.50;99.90
43858;DHT22;29507;51.284;5.758;2022-09-19T00:21:28;7.50;99.90
43858;DHT22;29507;51.284;5.758;2022-09-19T00:23:54;7.60;99.90
43858;DHT22;29507;51.284;5.758;2022-09-19T00:26:39;7.50;99.90
43858;DHT22;29507;51.284;5.758;2022-09-19T00:29:09;7.40;99.90
43858;DHT22;29507;51.284;5.758;2022-09-19T00:31:35;7.50;99.90
43858;DHT22;29507;51.284;5.758;2022-09-19T00:34:01;7.60;99.90
43858;DHT22;29507;51.284;5.758;2022-09-19T00:36:33;7.50;99.90
43858;DHT22;29507;51.284;5.758;2022-09-19T00:38:59;7.50;99.90
43858;DHT22;29507;51.284;5.758;2022-09-19T00:41:25;7.50;99.90
43858;DHT22;29507;51.284;5.758;2022-09-19T00:43:57;7.40;99.90
43858;DHT22;29507;51.284;5.758;2022-09-19T00:46:25;7.40;99.90
43858;DHT22;29507;51.284;5.758;2022-09-19T00:49:07;7.30;99.90
43858;DHT22;29507;51.284;5.758;2022-09-19T00:51:58;7.30;99.90
43858;DHT22;29507;51.284;5.758;2022-09-19T00:54:27;7.30;99.90
43858;DHT22;29507;51.284;5.758;2022-09-19T00:56:55;7.20;99.90
43858;DHT22;29507;51.284;5.758;2022-09-19T00:59:23;7.20;99.90
43858;DHT22;29507;51.284;5.758;2022-09-19T01:01:53;7.20;99.90
43858;DHT22;29507;51.284;5.758;2022-09-19T01:04:23;7.20;99.90
43858;DHT22;29507;51.284;5.758;2022-09-19T01:10:02;7.20;99.90
43858;DHT22;29507;51.284;5.758;2022-09-19T01:15:54;7.20;99.90
43858;DHT22;29507;51.284;5.758;2022-09-19T01:18:26;7.20;99.90
43858;DHT22;29507;51.284;5.758;2022-09-19T01:21:19;7.10;99.90
43858;DHT22;29507;51.284;5.758;2022-09-19T01:26:57;7.30;99.90
43858;DHT22;29507;51.284;5.758;2022-09-19T01:29:45;7.30;99.90
43858;DHT22;29507;51.284;5.758;2022-09-19T01:32:17;7.30;99.90
43858;DHT22;29507;51.284;5.758;2022-09-19T01:34:54;7.20;99.90
43858;DHT22;29507;51.284;5.758;2022-09-19T01:38:11;7.10;99.90
43858;DHT22;29507;51.284;5.758;2022-09-19T01:40:17;7.20;99.90
43858;DHT22;29507;51.284;5.758;2022-09-19T01:42:54;7.20;99.90
43858;DHT22;29507;51.284;5.758;2022-09-19T01:45:32;7.10;99.90
43858;DHT22;29507;51.284;5.758;2022-09-19T01:56:10;6.90;99.90
43858;DHT22;29507;51.284;5.758;2022-09-19T01:58:52;7.00;99.90
43858;DHT22;29507;51.284;5.758;2022-09-19T02:01:38;7.10;99.90
43858;DHT22;29507;51.284;5.758;2022-09-19T02:04:15;7.10;99.90
43858;DHT22;29507;51.284;5.758;2022-09-19T02:06:51;7.20;99.90
43858;DHT22;29507;51.284;5.758;2022-09-19T02:11:52;7.30;99.90
43858;DHT22;29507;51.284;5.758;2022-09-19T02:14:22;7.20;99.90
43858;DHT22;29507;51.284;5.758;2022-09-19T02:16:56;7.20;99.90
43858;DHT22;29507;51.284;5.758;2022-09-19T02:19:31;7.10;99.90
43858;DHT22;29507;51.284;5.758;2022-09-19T02:22:05;7.10;99.90
43858;DHT22;29507;51.284;5.758;2022-09-19T02:24:35;7.00;99.90
43858;DHT22;29507;51.284;5.758;2022-09-19T02:27:20;7.10;99.90
43858;DHT22;29507;51.284;5.758;2022-09-19T02:29:58;7.10;99.90
43858;DHT22;29507;51.284;5.758;2022-09-19T02:32:25;7.00;99.90
43858;DHT22;29507;51.284;5.758;2022-09-19T02:34:53;7.00;99.90
43858;DHT22;29507;51.284;5.758;2022-09-19T02:37:39;7.00;99.90
43858;DHT22;29507;51.284;5.758;2022-09-19T02:40:16;6.90;99.90
43858;DHT22;29507;51.284;5.758;2022-09-19T02:42:55;7.00;99.90
43858;DHT22;29507;51.284;5.758;2022-09-19T02:45:34;7.00;99.90
43858;DHT22;29507;51.284;5.758;2022-09-19T02:53:30;7.00;99.90
43858;DHT22;29507;51.284;5.758;2022-09-19T02:56:01;7.00;99.90
43858;DHT22;29507;51.284;5.758;2022-09-19T02:58:32;7.00;99.90
43858;DHT22;29507;51.284;5.758;2022-09-19T03:01:02;7.00;99.90
43858;DHT22;29507;51.284;5.758;2022-09-19T03:03:42;6.90;99.90
43858;DHT22;29507;51.284;5.758;2022-09-19T03:06:36;6.90;99.90
43858;DHT22;29507;51.284;5.758;2022-09-19T03:09:05;6.90;99.90
43858;DHT22;29507;51.284;5.758;2022-09-19T03:11:34;6.90;99.90
43858;DHT22;29507;51.284;5.758;2022-09-19T03:14:01;7.00;99.90
43858;DHT22;29507;51.284;5.758;2022-09-19T03:16:32;7.10;99.90
43858;DHT22;29507;51.284;5.758;2022-09-19T03:19:05;7.10;99.90
43858;DHT22;29507;51.284;5.758;2022-09-19T03:21:31;7.10;99.90
43858;DHT22;29507;51.284;5.758;2022-09-19T03:23:57;7.10;99.90
43858;DHT22;29507;51.284;5.758;2022-09-19T03:26:27;7.10;99.90
43858;DHT22;29507;51.284;5.758;2022-09-19T03:28:54;7.00;99.90
43858;DHT22;29507;51.284;5.758;2022-09-19T03:31:20;7.00;99.90
43858;DHT22;29507;51.284;5.758;2022-09-19T03:33:46;7.00;99.90
43858;DHT22;29507;51.284;5.758;2022-09-19T03:36:12;7.00;99.90
43858;DHT22;29507;51.284;5.758;2022-09-19T03:38:39;7.00;99.90
43858;DHT22;29507;51.284;5.758;2022-09-19T03:41:12;7.00;99.90
43858;DHT22;29507;51.284;5.758;2022-09-19T03:43:38;6.90;99.90
43858;DHT22;29507;51.284;5.758;2022-09-19T03:46:08;6.90;99.90
43858;DHT22;29507;51.284;5.758;2022-09-19T03:48:36;6.90;99.90
43858;DHT22;29507;51.284;5.758;2022-09-19T03:51:02;6.90;99.90
43858;DHT22;29507;51.284;5.758;2022-09-19T03:53:28;6.90;99.90
43858;DHT22;29507;51.284;5.758;2022-09-19T03:55:54;6.90;99.90
43858;DHT22;29507;51.284;5.758;2022-09-19T03:58:20;6.90;99.90
43858;DHT22;29507;51.284;5.758;2022-09-19T04:00:46;6.80;99.90
43858;DHT22;29507;51.284;5.758;2022-09-19T04:03:11;6.90;99.90
43858;DHT22;29507;51.284;5.758;2022-09-19T04:05:37;6.90;99.90
43858;DHT22;29507;51.284;5.758;2022-09-19T04:08:03;6.90;99.90
43858;DHT22;29507;51.284;5.758;2022-09-19T04:10:29;7.00;99.90
43858;DHT22;29507;51.284;5.758;2022-09-19T04:12:55;6.90;99.90
43858;DHT22;29507;51.284;5.758;2022-09-19T04:15:21;6.90;99.90
43858;DHT22;29507;51.284;5.758;2022-09-19T04:17:47;6.90;99.90
43858;DHT22;29507;51.284;5.758;2022-09-19T04:20:13;6.80;99.90
43858;DHT22;29507;51.284;5.758;2022-09-19T04:22:38;6.80;99.90
43858;DHT22;29507;51.284;5.758;2022-09-19T04:25:07;6.80;99.90
43858;DHT22;29507;51.284;5.758;2022-09-19T04:27:39;6.90;99.90
43858;DHT22;29507;51.284;5.758;2022-09-19T04:30:06;6.90;99.90
43858;DHT22;29507;51.284;5.758;2022-09-19T04:32:32;6.90;99.90
43858;DHT22;29507;51.284;5.758;2022-09-19T04:34:58;7.00;99.90
43858;DHT22;29507;51.284;5.758;2022-09-19T04:37:25;7.00;99.90
43858;DHT22;29507;51.284;5.758;2022-09-19T04:39:51;7.10;99.90
43858;DHT22;29507;51.284;5.758;2022-09-19T04:42:17;7.10;99.90
43858;DHT22;29507;51.284;5.758;2022-09-19T04:44:43;7.10;99.90
43858;DHT22;29507;51.284;5.758;2022-09-19T04:47:10;7.10;99.90
43858;DHT22;29507;51.284;5.758;2022-09-19T04:49:37;7.10;99.90
43858;DHT22;29507;51.284;5.758;2022-09-19T04:52:06;7.00;99.90
43858;DHT22;29507;51.284;5.758;2022-09-19T04:54:32;7.00;99.90
43858;DHT22;29507;51.284;5.758;2022-09-19T04:57:02;6.90;99.90
43858;DHT22;29507;51.284;5.758;2022-09-19T04:59:28;6.90;99.90
43858;DHT22;29507;51.284;5.758;2022-09-19T05:01:53;7.00;99.90
43858;DHT22;29507;51.284;5.758;2022-09-19T05:04:19;7.00;99.90
43858;DHT22;29507;51.284;5.758;2022-09-19T05:06:44;7.10;99.90
43858;DHT22;29507;51.284;5.758;2022-09-19T05:09:10;7.00;99.90
43858;DHT22;29507;51.284;5.758;2022-09-19T05:11:37;7.00;99.90
43858;DHT22;29507;51.284;5.758;2022-09-19T05:14:07;7.00;99.90
43858;DHT22;29507;51.284;5.758;2022-09-19T05:16:35;7.00;99.90
43858;DHT22;29507;51.284;5.758;2022-09-19T05:19:00;7.10;99.90
43858;DHT22;29507;51.284;5.758;2022-09-19T05:21:26;7.10;99.90
43858;DHT22;29507;51.284;5.758;2022-09-19T05:23:52;7.00;99.90
43858;DHT22;29507;51.284;5.758;2022-09-19T05:26:17;7.10;99.90
43858;DHT22;29507;51.284;5.758;2022-09-19T05:28:44;7.10;99.90
43858;DHT22;29507;51.284;5.758;2022-09-19T05:31:13;7.00;99.90
43858;DHT22;29507;51.284;5.758;2022-09-19T05:33:39;7.00;99.90
43858;DHT22;29507;51.284;5.758;2022-09-19T05:36:05;7.00;99.90
43858;DHT22;29507;51.284;5.758;2022-09-19T05:38:32;7.10;99.90
43858;DHT22;29507;51.284;5.758;2022-09-19T05:40:59;7.10;99.90
43858;DHT22;29507;51.284;5.758;2022-09-19T05:43:26;7.10;99.90
43858;DHT22;29507;51.284;5.758;2022-09-19T05:45:53;7.20;99.90
43858;DHT22;29507;51.284;5.758;2022-09-19T05:48:20;7.20;99.90
43858;DHT22;29507;51.284;5.758;2022-09-19T05:50:47;7.30;99.90
43858;DHT22;29507;51.284;5.758;2022-09-19T05:53:14;7.30;99.90
43858;DHT22;29507;51.284;5.758;2022-09-19T05:55:58;7.30;99.90
43858;DHT22;29507;51.284;5.758;2022-09-19T05:58:25;7.30;99.90
43858;DHT22;29507;51.284;5.758;2022-09-19T06:00:51;7.30;99.90
43858;DHT22;29507;51.284;5.758;2022-09-19T06:03:18;7.30;99.90
43858;DHT22;29507;51.284;5.758;2022-09-19T06:05:47;7.40;99.90
43858;DHT22;29507;51.284;5.758;2022-09-19T06:08:14;7.40;99.90
43858;DHT22;29507;51.284;5.758;2022-09-19T06:10:42;7.50;99.90
43858;DHT22;29507;51.284;5.758;2022-09-19T06:13:12;7.60;99.90
43858;DHT22;29507;51.284;5.758;2022-09-19T06:15:38;7.70;99.90
43858;DHT22;29507;51.284;5.758;2022-09-19T06:18:04;7.80;99.90
43858;DHT22;29507;51.284;5.758;2022-09-19T06:20:30;7.90;99.90
43858;DHT22;29507;51.284;5.758;2022-09-19T06:22:57;8.00;99.90
43858;DHT22;29507;51.284;5.758;2022-09-19T06:25:26;8.10;99.90
43858;DHT22;29507;51.284;5.758;2022-09-19T06:27:53;8.30;99.90
43858;DHT22;29507;51.284;5.758;2022-09-19T06:30:19;8.50;99.90
43858;DHT22;29507;51.284;5.758;2022-09-19T06:32:44;9.00;99.90
43858;DHT22;29507;51.284;5.758;2022-09-19T06:35:10;9.80;99.90
43858;DHT22;29507;51.284;5.758;2022-09-19T06:37:35;10.50;99.90
43858;DHT22;29507;51.284;5.758;2022-09-19T06:40:01;11.20;99.90
43858;DHT22;29507;51.284;5.758;2022-09-19T06:42:26;11.50;99.90
43858;DHT22;29507;51.284;5.758;2022-09-19T06:44:53;11.90;99.90
43858;DHT22;29507;51.284;5.758;2022-09-19T06:47:18;12.10;99.90
43858;DHT22;29507;51.284;5.758;2022-09-19T06:49:44;12.40;99.90
43858;DHT22;29507;51.284;5.758;2022-09-19T06:52:09;12.70;99.90
43858;DHT22;29507;51.284;5.758;2022-09-19T06:54:35;12.90;99.90
43858;DHT22;29507;51.284;5.758;2022-09-19T06:57:01;13.20;99.90
43858;DHT22;29507;51.284;5.758;2022-09-19T06:59:27;13.50;99.90
43858;DHT22;29507;51.284;5.758;2022-09-19T07:01:53;13.70;99.90
43858;DHT22;29507;51.284;5.758;2022-09-19T07:04:19;14.30;99.90
43858;DHT22;29507;51.284;5.758;2022-09-19T07:06:45;14.50;99.90
43858;DHT22;29507;51.284;5.758;2022-09-19T07:09:10;13.90;99.90
43858;DHT22;29507;51.284;5.758;2022-09-19T07:11:36;13.20;99.90
43858;DHT22;29507;51.284;5.758;2022-09-19T07:14:04;12.70;99.90
43858;DHT22;29507;51.284;5.758;2022-09-19T07:16:30;12.40;99.90
43858;DHT22;29507;51.284;5.758;2022-09-19T07:18:56;12.30;99.90
43858;DHT22;29507;51.284;5.758;2022-09-19T07:21:22;12.50;99.90
43858;DHT22;29507;51.284;5.758;2022-09-19T07:23:47;12.50;99.90
43858;DHT22;29507;51.284;5.758;2022-09-19T07:26:14;12.70;99.90
43858;DHT22;29507;51.284;5.758;2022-09-19T07:28:40;13.20;99.90
43858;DHT22;29507;51.284;5.758;2022-09-19T07:31:05;13.90;99.90
43858;DHT22;29507;51.284;5.758;2022-09-19T07:33:31;14.50;99.90
43858;DHT22;29507;51.284;5.758;2022-09-19T07:35:57;14.30;99.90
43858;DHT22;29507;51.284;5.758;2022-09-19T07:38:24;13.80;99.90
43858;DHT22;29507;51.284;5.758;2022-09-19T07:40:55;13.40;99.90
43858;DHT22;29507;51.284;5.758;2022-09-19T07:43:20;13.10;99.90
43858;DHT22;29507;51.284;5.758;2022-09-19T07:45:48;12.90;99.90
43858;DHT22;29507;51.284;5.758;2022-09-19T07:48:15;12.90;99.90
43858;DHT22;29507;51.284;5.758;2022-09-19T07:50:41;12.90;99.90
43858;DHT22;29507;51.284;5.758;2022-09-19T07:53:10;13.10;99.90
43858;DHT22;29507;51.284;5.758;2022-09-19T07:55:37;13.50;99.90
43858;DHT22;29507;51.284;5.758;2022-09-19T07:58:03;13.60;99.90
43858;DHT22;29507;51.284;5.758;2022-09-19T08:00:30;13.60;99.90
43858;DHT22;29507;51.284;5.758;2022-09-19T08:02:57;13.50;99.90
43858;DHT22;29507;51.284;5.758;2022-09-19T08:05:24;13.30;99.90
43858;DHT22;29507;51.284;5.758;2022-09-19T08:07:50;13.10;99.90
43858;DHT22;29507;51.284;5.758;2022-09-19T08:10:16;13.10;99.90
43858;DHT22;29507;51.284;5.758;2022-09-19T08:12:43;13.30;99.90
43858;DHT22;29507;51.284;5.758;2022-09-19T08:15:11;13.70;99.90
43858;DHT22;29507;51.284;5.758;2022-09-19T08:17:41;13.60;99.90
43858;DHT22;29507;51.284;5.758;2022-09-19T08:20:07;13.80;99.90
43858;DHT22;29507;51.284;5.758;2022-09-19T08:22:33;14.20;99.90
43858;DHT22;29507;51.284;5.758;2022-09-19T08:25:00;14.90;99.90
43858;DHT22;29507;51.284;5.758;2022-09-19T08:27:26;15.90;99.90
43858;DHT22;29507;51.284;5.758;2022-09-19T08:29:51;16.70;99.90
43858;DHT22;29507;51.284;5.758;2022-09-19T08:32:17;16.90;99.90
43858;DHT22;29507;51.284;5.758;2022-09-19T08:34:43;16.50;99.90
43858;DHT22;29507;51.284;5.758;2022-09-19T08:37:08;16.00;99.90
43858;DHT22;29507;51.284;5.758;2022-09-19T08:39:34;15.70;99.90
43858;DHT22;29507;51.284;5.758;2022-09-19T08:42:07;15.40;99.90
43858;DHT22;29507;51.284;5.758;2022-09-19T08:44:59;15.20;99.90
43858;DHT22;29507;51.284;5.758;2022-09-19T08:47:27;16.00;99.90
43858;DHT22;29507;51.284;5.758;2022-09-19T08:50:04;16.20;99.90
43858;DHT22;29507;51.284;5.758;2022-09-19T08:52:46;16.00;99.90
43858;DHT22;29507;51.284;5.758;2022-09-19T08:55:26;15.70;99.90
43858;DHT22;29507;51.284;5.758;2022-09-19T08:57:57;15.30;99.90
43858;DHT22;29507;51.284;5.758;2022-09-19T09:00:29;15.00;99.90
43858;DHT22;29507;51.284;5.758;2022-09-19T09:03:04;14.80;99.90
43858;DHT22;29507;51.284;5.758;2022-09-19T09:05:55;14.70;99.90
43858;DHT22;29507;51.284;5.758;2022-09-19T09:08:52;14.70;99.90
43858;DHT22;29507;51.284;5.758;2022-09-19T09:11:42;14.50;99.90
43858;DHT22;29507;51.284;5.758;2022-09-19T09:14:28;14.40;99.90
43858;DHT22;29507;51.284;5.758;2022-09-19T09:22:30;14.40;99.90
43858;DHT22;29507;51.284;5.758;2022-09-19T09:25:18;14.50;99.90
43858;DHT22;29507;51.284;5.758;2022-09-19T09:30:30;14.70;99.90
43858;DHT22;29507;51.284;5.758;2022-09-19T09:33:08;14.70;99.90
43858;DHT22;29507;51.284;5.758;2022-09-19T09:35:41;14.90;99.90
43858;DHT22;29507;51.284;5.758;2022-09-19T09:38:34;14.90;99.90
43858;DHT22;29507;51.284;5.758;2022-09-19T09:41:23;15.10;99.90
43858;DHT22;29507;51.284;5.758;2022-09-19T09:49:16;15.50;99.90
43858;DHT22;29507;51.284;5.758;2022-09-19T10:00:30;16.60;99.90
43858;DHT22;29507;51.284;5.758;2022-09-19T10:06:12;16.60;99.90
43858;DHT22;29507;51.284;5.758;2022-09-19T10:08:48;16.50;99.90
43858;DHT22;29507;51.284;5.758;2022-09-19T10:11:19;16.40;99.90
43858;DHT22;29507;51.284;5.758;2022-09-19T10:13:54;16.40;99.90
43858;DHT22;29507;51.284;5.758;2022-09-19T10:16:31;16.60;99.90
43858;DHT22;29507;51.284;5.758;2022-09-19T10:19:06;16.60;99.90
43858;DHT22;29507;51.284;5.758;2022-09-19T10:21:37;16.50;99.90
43858;DHT22;29507;51.284;5.758;2022-09-19T10:24:43;16.50;99.90
43858;DHT22;29507;51.284;5.758;2022-09-19T10:29:56;16.30;99.90
43858;DHT22;29507;51.284;5.758;2022-09-19T10:32:31;17.40;99.90
43858;DHT22;29507;51.284;5.758;2022-09-19T10:35:32;18.60;96.10
43858;DHT22;29507;51.284;5.758;2022-09-19T10:38:12;19.40;93.00
43858;DHT22;29507;51.284;5.758;2022-09-19T10:43:23;19.80;84.70
43858;DHT22;29507;51.284;5.758;2022-09-19T10:45:52;20.00;87.10
43858;DHT22;29507;51.284;5.758;2022-09-19T10:48:26;20.40;84.50
43858;DHT22;29507;51.284;5.758;2022-09-19T10:50:57;20.40;84.30
43858;DHT22;29507;51.284;5.758;2022-09-19T10:53:30;21.60;80.80
43858;DHT22;29507;51.284;5.758;2022-09-19T10:56:17;20.90;79.90
43858;DHT22;29507;51.284;5.758;2022-09-19T10:58:50;21.00;80.50
43858;DHT22;29507;51.284;5.758;2022-09-19T11:01:25;21.50;78.20
43858;DHT22;29507;51.284;5.758;2022-09-19T11:06:59;20.50;75.40
43858;DHT22;29507;51.284;5.758;2022-09-19T11:09:27;19.50;79.90
43858;DHT22;29507;51.284;5.758;2022-09-19T11:12:03;18.90;82.00
43858;DHT22;29507;51.284;5.758;2022-09-19T11:14:35;18.50;83.40
43858;DHT22;29507;51.284;5.758;2022-09-19T11:17:36;18.30;83.80
43858;DHT22;29507;51.284;5.758;2022-09-19T11:23:07;17.00;92.30
43858;DHT22;29507;51.284;5.758;2022-09-19T11:28:41;16.20;99.90
43858;DHT22;29507;51.284;5.758;2022-09-19T11:34:05;15.80;99.90
43858;DHT22;29507;51.284;5.758;2022-09-19T11:36:55;15.40;99.90
43858;DHT22;29507;51.284;5.758;2022-09-19T11:39:47;15.20;99.90
43858;DHT22;29507;51.284;5.758;2022-09-19T11:45:10;15.30;99.90
43858;DHT22;29507;51.284;5.758;2022-09-19T11:55:58;21.60;83.90
43858;DHT22;29507;51.284;5.758;2022-09-19T11:58:38;20.70;80.70
43858;DHT22;29507;51.284;5.758;2022-09-19T12:04:41;17.60;90.20
43858;DHT22;29507;51.284;5.758;2022-09-19T12:12:17;15.80;99.90
43858;DHT22;29507;51.284;5.758;2022-09-19T12:14:52;16.00;99.90
43858;DHT22;29507;51.284;5.758;2022-09-19T12:17:27;16.50;99.90
43858;DHT22;29507;51.284;5.758;2022-09-19T12:20:20;16.90;99.90
43858;DHT22;29507;51.284;5.758;2022-09-19T12:22:57;17.10;99.90
43858;DHT22;29507;51.284;5.758;2022-09-19T12:25:45;17.30;99.90
43858;DHT22;29507;51.284;5.758;2022-09-19T12:28:13;17.20;99.90
43858;DHT22;29507;51.284;5.758;2022-09-19T12:30:45;17.40;99.90
43858;DHT22;29507;51.284;5.758;2022-09-19T12:35:51;21.20;91.00
43858;DHT22;29507;51.284;5.758;2022-09-19T12:41:17;23.70;78.90
43858;DHT22;29507;51.284;5.758;2022-09-19T12:46:49;21.50;77.10
43858;DHT22;29507;51.284;5.758;2022-09-19T12:49:41;19.80;83.70
43858;DHT22;29507;51.284;5.758;2022-09-19T12:52:16;18.20;90.80
43858;DHT22;29507;51.284;5.758;2022-09-19T12:57:23;16.80;97.70
43858;DHT22;29507;51.284;5.758;2022-09-19T12:59:52;18.30;94.60
43858;DHT22;29507;51.284;5.758;2022-09-19T13:07:57;24.20;71.60
43858;DHT22;29507;51.284;5.758;2022-09-19T13:10:48;24.50;72.60
43858;DHT22;29507;51.284;5.758;2022-09-19T13:13:39;24.10;68.50
43858;DHT22;29507;51.284;5.758;2022-09-19T13:16:11;24.80;67.30
43858;DHT22;29507;51.284;5.758;2022-09-19T13:18:44;24.80;66.70
43858;DHT22;29507;51.284;5.758;2022-09-19T13:21:36;22.30;67.20
43858;DHT22;29507;51.284;5.758;2022-09-19T13:24:38;20.10;74.50
43858;DHT22;29507;51.284;5.758;2022-09-19T13:27:18;19.60;81.30
43858;DHT22;29507;51.284;5.758;2022-09-19T13:29:47;19.70;78.90
43858;DHT22;29507;51.284;5.758;2022-09-19T13:32:47;19.10;81.70
43858;DHT22;29507;51.284;5.758;2022-09-19T13:35:20;18.40;84.00
43858;DHT22;29507;51.284;5.758;2022-09-19T13:37:54;19.60;86.00
43858;DHT22;29507;51.284;5.758;2022-09-19T13:48:54;24.60;66.00
43858;DHT22;29507;51.284;5.758;2022-09-19T13:51:53;25.20;64.30
43858;DHT22;29507;51.284;5.758;2022-09-19T14:04:46;20.30;69.90
43858;DHT22;29507;51.284;5.758;2022-09-19T14:07:31;19.20;71.60
43858;DHT22;29507;51.284;5.758;2022-09-19T14:10:04;18.40;74.30
43858;DHT22;29507;51.284;5.758;2022-09-19T14:20:53;21.50;71.90
43858;DHT22;29507;51.284;5.758;2022-09-19T14:23:42;22.10;71.50
43858;DHT22;29507;51.284;5.758;2022-09-19T14:37:09;23.30;67.00
43858;DHT22;29507;51.284;5.758;2022-09-19T14:40:46;23.50;67.30
43858;DHT22;29507;51.284;5.758;2022-09-19T14:46:00;21.30;71.00
43858;DHT22;29507;51.284;5.758;2022-09-19T14:48:37;21.30;71.40
43858;DHT22;29507;51.284;5.758;2022-09-19T14:54:10;21.10;69.50
43858;DHT22;29507;51.284;5.758;2022-09-19T14:56:38;20.50;66.00
43858;DHT22;29507;51.284;5.758;2022-09-19T14:59:04;20.40;65.80
43858;DHT22;29507;51.284;5.758;2022-09-19T15:01:33;20.00;65.80
43858;DHT22;29507;51.284;5.758;2022-09-19T15:06:31;19.00;68.50
43858;DHT22;29507;51.284;5.758;2022-09-19T15:08:58;18.80;69.50
43858;DHT22;29507;51.284;5.758;2022-09-19T15:11:24;18.60;69.90
43858;DHT22;29507;51.284;5.758;2022-09-19T15:13:52;18.70;70.40
43858;DHT22;29507;51.284;5.758;2022-09-19T15:16:19;18.60;70.90
43858;DHT22;29507;51.284;5.758;2022-09-19T15:18:48;18.50;72.30
43858;DHT22;29507;51.284;5.758;2022-09-19T15:21:20;18.40;71.30
43858;DHT22;29507;51.284;5.758;2022-09-19T15:23:47;18.30;77.60
43858;DHT22;29507;51.284;5.758;2022-09-19T15:26:16;18.10;80.80
43858;DHT22;29507;51.284;5.758;2022-09-19T15:29:00;17.70;83.10
43858;DHT22;29507;51.284;5.758;2022-09-19T15:31:29;17.40;87.80
43858;DHT22;29507;51.284;5.758;2022-09-19T15:34:09;17.10;90.70
43858;DHT22;29507;51.284;5.758;2022-09-19T15:36:37;16.80;94.90
43858;DHT22;29507;51.284;5.758;2022-09-19T15:39:04;16.70;94.80
43858;DHT22;29507;51.284;5.758;2022-09-19T15:41:30;16.60;91.80
43858;DHT22;29507;51.284;5.758;2022-09-19T15:43:58;16.50;90.80
43858;DHT22;29507;51.284;5.758;2022-09-19T15:49:28;16.30;88.00
43858;DHT22;29507;51.284;5.758;2022-09-19T15:52:01;16.30;86.40
43858;DHT22;29507;51.284;5.758;2022-09-19T15:54:31;16.50;86.90
43858;DHT22;29507;51.284;5.758;2022-09-19T15:57:00;16.70;85.30
43858;DHT22;29507;51.284;5.758;2022-09-19T15:59:32;17.00;85.10
43858;DHT22;29507;51.284;5.758;2022-09-19T16:02:04;17.40;84.40
43858;DHT22;29507;51.284;5.758;2022-09-19T16:04:32;17.50;83.10
43858;DHT22;29507;51.284;5.758;2022-09-19T16:06:59;17.40;83.70
43858;DHT22;29507;51.284;5.758;2022-09-19T16:09:48;17.20;82.90
43858;DHT22;29507;51.284;5.758;2022-09-19T16:12:33;17.00;85.30
43858;DHT22;29507;51.284;5.758;2022-09-19T16:15:02;16.80;86.80
43858;DHT22;29507;51.284;5.758;2022-09-19T16:22:59;16.00;94.50
43858;DHT22;29507;51.284;5.758;2022-09-19T16:25:25;15.80;97.90
43858;DHT22;29507;51.284;5.758;2022-09-19T16:27:52;15.60;99.90
43858;DHT22;29507;51.284;5.758;2022-09-19T16:30:18;15.40;99.90
43858;DHT22;29507;51.284;5.758;2022-09-19T16:32:44;15.30;99.90
43858;DHT22;29507;51.284;5.758;2022-09-19T16:35:16;15.20;99.90
43858;DHT22;29507;51.284;5.758;2022-09-19T16:37:42;15.10;99.90
43858;DHT22;29507;51.284;5.758;2022-09-19T16:40:22;15.00;99.90
43858;DHT22;29507;51.284;5.758;2022-09-19T16:42:48;14.90;99.90
43858;DHT22;29507;51.284;5.758;2022-09-19T16:45:16;14.80;99.90
43858;DHT22;29507;51.284;5.758;2022-09-19T16:47:45;14.70;99.90
43858;DHT22;29507;51.284;5.758;2022-09-19T16:50:13;14.60;99.90
43858;DHT22;29507;51.284;5.758;2022-09-19T16:52:43;14.50;99.90
43858;DHT22;29507;51.284;5.758;2022-09-19T16:55:40;14.60;99.90
43858;DHT22;29507;51.284;5.758;2022-09-19T16:58:14;14.60;99.90
43858;DHT22;29507;51.284;5.758;2022-09-19T17:00:40;14.60;99.90
43858;DHT22;29507;51.284;5.758;2022-09-19T17:03:08;14.80;99.90
43858;DHT22;29507;51.284;5.758;2022-09-19T17:05:36;14.90;99.90
43858;DHT22;29507;51.284;5.758;2022-09-19T17:08:03;14.90;99.90
43858;DHT22;29507;51.284;5.758;2022-09-19T17:10:30;14.70;99.90
43858;DHT22;29507;51.284;5.758;2022-09-19T17:12:56;14.40;99.90
43858;DHT22;29507;51.284;5.758;2022-09-19T17:15:45;14.20;99.90
43858;DHT22;29507;51.284;5.758;2022-09-19T17:18:13;14.00;99.90
43858;DHT22;29507;51.284;5.758;2022-09-19T17:20:40;13.90;99.90
43858;DHT22;29507;51.284;5.758;2022-09-19T17:23:09;13.80;99.90
43858;DHT22;29507;51.284;5.758;2022-09-19T17:25:47;13.80;99.90
43858;DHT22;29507;51.284;5.758;2022-09-19T17:28:15;13.70;99.90
43858;DHT22;29507;51.284;5.758;2022-09-19T17:30:45;13.80;99.90
43858;DHT22;29507;51.284;5.758;2022-09-19T17:33:12;13.80;99.90
43858;DHT22;29507;51.284;5.758;2022-09-19T17:35:41;13.70;99.90
43858;DHT22;29507;51.284;5.758;2022-09-19T17:38:09;13.60;99.90
43858;DHT22;29507;51.284;5.758;2022-09-19T17:40:43;13.60;99.90
43858;DHT22;29507;51.284;5.758;2022-09-19T17:43:12;13.50;99.90
43858;DHT22;29507;51.284;5.758;2022-09-19T17:45:49;13.50;99.90
43858;DHT22;29507;51.284;5.758;2022-09-19T17:48:16;13.50;99.90
43858;DHT22;29507;51.284;5.758;2022-09-19T17:50:43;13.40;99.90
43858;DHT22;29507;51.284;5.758;2022-09-19T17:53:12;13.20;99.90
43858;DHT22;29507;51.284;5.758;2022-09-19T17:55:37;13.10;99.90
43858;DHT22;29507;51.284;5.758;2022-09-19T17:58:04;13.00;99.90
43858;DHT22;29507;51.284;5.758;2022-09-19T18:00:30;12.90;99.90
43858;DHT22;29507;51.284;5.758;2022-09-19T18:02:56;12.80;99.90
43858;DHT22;29507;51.284;5.758;2022-09-19T18:05:41;12.70;99.90
43858;DHT22;29507;51.284;5.758;2022-09-19T18:08:07;12.70;99.90
43858;DHT22;29507;51.284;5.758;2022-09-19T18:10:36;12.60;99.90
43858;DHT22;29507;51.284;5.758;2022-09-19T18:13:01;12.60;99.90
43858;DHT22;29507;51.284;5.758;2022-09-19T18:15:31;12.50;99.90
43858;DHT22;29507;51.284;5.758;2022-09-19T18:17:57;12.50;99.90
43858;DHT22;29507;51.284;5.758;2022-09-19T18:20:24;12.40;99.90
43858;DHT22;29507;51.284;5.758;2022-09-19T18:22:55;12.40;99.90
43858;DHT22;29507;51.284;5.758;2022-09-19T18:25:21;12.40;99.90
43858;DHT22;29507;51.284;5.758;2022-09-19T18:27:47;12.30;99.90
43858;DHT22;29507;51.284;5.758;2022-09-19T18:30:15;12.30;99.90
43858;DHT22;29507;51.284;5.758;2022-09-19T18:32:41;12.30;99.90
43858;DHT22;29507;51.284;5.758;2022-09-19T18:35:09;12.20;99.90
43858;DHT22;29507;51.284;5.758;2022-09-19T18:37:36;12.20;99.90
43858;DHT22;29507;51.284;5.758;2022-09-19T18:40:03;12.10;99.90
43858;DHT22;29507;51.284;5.758;2022-09-19T18:42:28;12.00;99.90
43858;DHT22;29507;51.284;5.758;2022-09-19T18:44:55;11.90;99.90